Caneli — 2BHE7 — position and weather

sailwx.info

Track history (hours):
 
Tides and Currents Weather Stations Pressure Air Temp Water Temp Dewpoint Dewpoint Depression Visibility Wind Speed Wind Dir Waves Ship Positions

Caneli

Last reported at 2014-Dec-19 00:09 UTC. Time now 2014-Dec-22 22:40 UTC.
Position N 25°45' W 080°03'.

Length 43 m; draft 3 m.

Type: Pleasure craft. MMSI: 235065392.

Date/timePositionNaut miles runAvg speedWind from/ knotsBaromVisibWave heightAir tempDewpointWater temp
2014-Dec-19 00:09N 25°45' W 080°03'5 8.9
2014-Dec-18 23:33N 25°51' W 080°03'8 8.4
2014-Dec-18 22:33N 25°59' W 080°03'8 8.0
2014-Dec-18 21:33N 26°07' W 080°02'8 7.9
2014-Dec-18 20:33N 26°15' W 080°02'8 8.2
2014-Dec-18 19:33N 26°23' W 080°01'9 8.9
2014-Dec-18 18:33N 26°32' W 080°00'13 6.3
2014-Dec-18 16:30N 26°45' W 080°03'0 0.1
2014-Dec-18 10:09N 26°45' W 080°03'0 0.0
2014-Dec-17 13:21N 26°45' W 080°03'  
Track history (hours):
 
Tides and Currents Weather Stations Pressure Air Temp Water Temp Dewpoint Dewpoint Depression Visibility Wind Speed Wind Dir Waves Ship Positions

Caneli

Last reported at 2014-Dec-19 00:09 UTC. Time now 2014-Dec-22 22:40 UTC.
Position N 25°45' W 080°03'.

Length 43 m; draft 3 m.

Type: Pleasure craft. MMSI: 235065392.

Date/timePositionNaut miles runAvg speedWind from/ knotsBaromVisibWave heightAir tempDewpointWater temp
2014-Dec-19 00:09N 25°45' W 080°03'5 8.9
2014-Dec-18 23:33N 25°51' W 080°03'8 8.4
2014-Dec-18 22:33N 25°59' W 080°03'8 8.0
2014-Dec-18 21:33N 26°07' W 080°02'8 7.9
2014-Dec-18 20:33N 26°15' W 080°02'8 8.2
2014-Dec-18 19:33N 26°23' W 080°01'9 8.9
2014-Dec-18 18:33N 26°32' W 080°00'13 6.3
2014-Dec-18 16:30N 26°45' W 080°03'0 0.1
2014-Dec-18 10:09N 26°45' W 080°03'0 0.0
2014-Dec-17 13:21N 26°45' W 080°03'  

Dump ship's entire track history